Airfield :
LOGIN :

Register | Disclaimer

   EN    FR    IT 

 










Legend :    VFR   Marginal VFR   IFR   Intensive IFR   Very Intensive IFR
Visi :
Ceiling :
>= 8 km
>= 3000ft
5 to 8 km
1000 to 3000 ft
1500m to 5 km
500 to 1000 ft
800 to 1500m
200 to 500 ft
< 800m
< 200 ft
Symbols :   Thunderstorms  Fog  Heavy snow  Heavy precipitations  Wind > 20 kt
SIGMETs :     Misc.  Thunderstorms  Icing  Turbulence  Mountain Waves  Volcanic Ashes






- Airport Elevation : 163 ft
- IATA code : IST


LTBA - Ataturk

CURRENT METAR :
  • 171020Z 03007KT 350V060 CAVOK 22/13 Q1020 NOSIG RMK RWY17L 01008KT 340V040 RWY05 02008KT RWY23 04008KT 360V080

EXPIRED METARs :
  • 170950Z 03008KT 360V060 CAVOK 22/13 Q1020 NOSIG RMK RWY17L 02009KT 350V060 RWY05 01009KT 340V040 RWY23 03010KT
  • 170920Z 03008KT 360V060 CAVOK 21/13 Q1020 NOSIG RMK RWY17L 02008KT 360V060 RWY05 02007KT 330V050 RWY23 03009KT 360V060
  • 170850Z 04007KT CAVOK 20/14 Q1021 NOSIG RMK RWY17L 03008KT RWY05 02007KT 350V050 RWY23 04008KT
  • 170820Z 03007KT CAVOK 19/14 Q1021 NOSIG RMK RWY17L 03007KT 360V080 RWY05 02009KT RWY23 04009KT
  • 170750Z 04008KT CAVOK 19/14 Q1021 NOSIG RMK RWY17L 04009KT 010V070 RWY05 03009KT RWY23 06008KT 030V090

TAF TAF LTBA
Valid from the 17 at 06:00 until the 18 at 12:00 UTC


170440Z 1706/1812 04012KT CAVOK
BECMG 1720/1723 VRB02KT SCT012
TEMPO 1723/1803 4000 BR
PROB30
TEMPO 1803/1806 1200 BCFG
BECMG 1806/1808 CAVOK



MET'MAP, your aeronautical weather chart ! - Copyright ORBIFLY December 2007 - Disclaimer

ORBIFLY MET'MAP TEAM :

Programming & Development : Alexandra Zaïnal
Concept & Development : Baudouin d'Aumeries
Co-Development & Prog : Marc-Olivier Méhu
Technical & hardware support : Manuel Goepfert

Contact : metmap@orbifly.com




SOURCES & CREDITS :

   NOAA